Vanetia, Texas
Current Conditions -  °F | °C
As of 10:55 PM on Monday 20 Oct 2014 (Local Time) from KLHB Reporting Station
Clear Clear  
Wind Chill: 67°   Ceiling: Unl
Heat Index: 67°   Visibility: 10mi
Dew Point: 60°   Wind: 3mph
Humidity: 80%   Direction: 70°ENE
Pressure: 30.06"   Gusts: NA
Location:  31.2206°N, 96.2362°W
Report Text: KLHB 210355Z AUTO 07003KT 10SM CLR 19/16 A3006 RMK AO2 T01930157
Loading
Personal Weather Stations






























Interactive Weather Map
Tropical Storm Tracking
New forecast layout! Learn more

10-Day Weather Forecast

Advertisements
Track Severe Weather on mobile